Time;durP1;ratioP1;P1;durP2;ratioP2;P2;SDS_P1;SDS_P2;PMS_P1;PMS_P2;Temp;Humidity;BMP_temperature;BMP_pressure;BME280_temperature;BME280_humidity;BME280_pressure;Samples;Min_cycle;Max_cycle;Signal;HPM_P1;HPM_P2
2022/04/25 00:00:24;;;;;;;;;;;;;;;;;;5155416;27;28514;-84
2022/04/25 00:02:50;;;;;;;;;;;;;;;;;;5155435;27;28452;-84
2022/04/25 00:05:15;;;;;;;;;;;;;;;;;;5155650;27;28452;-84
2022/04/25 00:07:41;;;;;;;;;;;;;;;;;;5155274;27;28618;-84
2022/04/25 00:10:06;;;;;;;;;;;;;;;;;;5155390;27;28499;-84
2022/04/25 00:12:31;;;;;;;;;;;;;;;;;;5155486;27;28459;-84
2022/04/25 00:14:56;;;;;;;;;;;;;;;;;;5155487;27;28491;-84
2022/04/25 00:17:21;;;;;;;;;;;;;;;;;;5154983;27;28512;-84
2022/04/25 00:19:47;;;;;;;;;;;;;;;;;;5155388;27;28500;-84
2022/04/25 00:22:12;;;;;;;;;;;;;;;;;;5155251;27;28645;-84
2022/04/25 00:24:37;;;;;;;;;;;;;;;;;;5155322;27;28429;-84
2022/04/25 00:27:02;;;;;;;;;;;;;;;;;;5155280;27;28441;-84
2022/04/25 00:29:27;;;;;;;;;;;;;;;;;;5154863;27;28362;-84
2022/04/25 00:31:52;;;;;;;;;;;;;;;;;;5156327;27;28370;-84
2022/04/25 00:34:17;;;;;;;;;;;;;;;;;;5158887;27;28345;-84
2022/04/25 00:36:43;;;;;;;;;;;;;;;;;;5158580;27;28517;-84
2022/04/25 00:39:08;;;;;;;;;;;;;;;;;;5158615;27;28548;-84
2022/04/25 00:41:33;;;;;;;;;;;;;;;;;;5158545;27;28379;-84
2022/04/25 00:43:58;;;;;;;;;;;;;;;;;;5158440;27;28442;-83
2022/04/25 00:46:23;;;;;;;;;;;;;;;;;;5158249;27;28640;-84
2022/04/25 00:48:48;;;;;;;;;;;;;;;;;;5158447;27;28444;-83
2022/04/25 00:51:13;;;;;;;;;;;;;;;;;;5158555;27;28522;-84
2022/04/25 00:53:39;;;;;;;;;;;;;;;;;;5158404;27;28383;-83
2022/04/25 00:56:04;;;;;;;;;;;;;;;;;;5158280;27;28478;-84
2022/04/25 00:58:29;;;;;;;;;;;;;;;;;;5158149;27;28420;-83
2022/04/25 01:00:54;;;;;;;;;;;;;;;;;;5158124;27;28578;-83
2022/04/25 01:03:19;;;;;;;;;;;;;;;;;;5158333;27;28624;-83
2022/04/25 01:05:44;;;;;;;;;;;;;;;;;;5158323;27;29337;-83
2022/04/25 01:08:09;;;;;;;;;;;;;;;;;;5158043;27;28348;-83
2022/04/25 01:10:34;;;;;;;;;;;;;;;;;;5158095;27;28365;-83
2022/04/25 01:13:00;;;;;;;;;;;;;;;;;;5158390;27;28396;-83
2022/04/25 01:15:28;;;;;;;;;;;;;;;;;;5157983;27;28411;-83
2022/04/25 01:17:53;;;;;;;;;;;;;;;;;;5157823;27;28442;-83
2022/04/25 01:20:18;;;;;;;;;;;;;;;;;;5136242;27;28481;-83
2022/04/25 01:22:43;;;;;;;;;;;;;;;;;;5157965;27;28331;-83
2022/04/25 01:27:52;;;;;;;;;;;;;;;;;;5153763;27;28343;-83
2022/04/25 01:30:17;;;;;;;;;;;;;;;;;;5157822;27;28447;-83
2022/04/25 01:32:43;;;;;;;;;;;;;;;;;;5157734;27;28456;-83
2022/04/25 01:35:08;;;;;;;;;;;;;;;;;;5153460;27;29015;-83
2022/04/25 01:37:33;;;;;;;;;;;;;;;;;;5157593;27;28781;-83
2022/04/25 01:39:58;;;;;;;;;;;;;;;;;;5157746;27;28469;-83
2022/04/25 01:42:23;;;;;;;;;;;;;;;;;;5157710;27;28559;-83
2022/04/25 01:44:48;;;;;;;;;;;;;;;;;;5156614;27;28531;-83
2022/04/25 01:47:13;;;;;;;;;;;;;;;;;;5157518;27;28432;-83
2022/04/25 01:49:39;;;;;;;;;;;;;;;;;;5157458;27;28516;-82
2022/04/25 01:52:04;;;;;;;;;;;;;;;;;;5157602;27;28529;-83
2022/04/25 01:54:29;;;;;;;;;;;;;;;;;;5157202;27;28458;-83
2022/04/25 01:56:54;;;;;;;;;;;;;;;;;;5156772;27;28585;-83
2022/04/25 01:59:19;;;;;;;;;;;;;;;;;;5157413;27;28508;-83
2022/04/25 02:01:44;;;;;;;;;;;;;;;;;;5157243;27;28542;-83
2022/04/25 02:04:09;;;;;;;;;;;;;;;;;;5157182;27;33742;-83
2022/04/25 02:06:34;;;;;;;;;;;;;;;;;;5157217;27;28416;-83
2022/04/25 02:08:59;;;;;;;;;;;;;;;;;;5157151;27;28481;-83
2022/04/25 02:11:25;;;;;;;;;;;;;;;;;;5157365;27;28371;-83
2022/04/25 02:13:51;;;;;;;;;;;;;;;;;;5156865;27;28441;-83
2022/04/25 02:16:16;;;;;;;;;;;;;;;;;;5157000;27;28532;-83
2022/04/25 02:18:41;;;;;;;;;;;;;;;;;;5156925;27;28449;-83
2022/04/25 02:21:06;;;;;;;;;;;;;;;;;;5157316;27;28483;-83
2022/04/25 02:23:31;;;;;;;;;;;;;;;;;;5156624;27;28306;-83
2022/04/25 02:25:56;;;;;;;;;;;;;;;;;;5156951;27;28497;-83
2022/04/25 02:28:21;;;;;;;;;;;;;;;;;;5157070;27;28255;-82
2022/04/25 02:30:47;;;;;;;;;;;;;;;;;;5156915;27;28365;-83
2022/04/25 02:33:12;;;;;;;;;;;;;;;;;;5156628;27;28624;-82
2022/04/25 02:35:37;;;;;;;;;;;;;;;;;;5157022;27;28408;-82
2022/04/25 02:38:02;;;;;;;;;;;;;;;;;;5156655;27;28398;-83
2022/04/25 02:40:27;;;;;;;;;;;;;;;;;;5156997;27;28256;-83
2022/04/25 02:42:52;;;;;;;;;;;;;;;;;;5156519;27;29109;-82
2022/04/25 02:45:17;;;;;;;;;;;;;;;;;;5156684;27;28611;-83
2022/04/25 02:47:44;;;;;;;;;;;;;;;;;;5156192;27;28322;-82
2022/04/25 02:50:09;;;;;;;;;;;;;;;;;;5156600;27;29137;-83
2022/04/25 02:52:34;;;;;;;;;;;;;;;;;;5156474;27;29311;-83
2022/04/25 02:54:59;;;;;;;;;;;;;;;;;;5155214;27;28315;-82
2022/04/25 02:57:24;;;;;;;;;;;;;;;;;;5156333;27;28554;-82
2022/04/25 02:59:49;;;;;;;;;;;;;;;;;;5156458;27;28411;-82
2022/04/25 03:02:15;;;;;;;;;;;;;;;;;;5155916;27;28339;-82
2022/04/25 03:04:40;;;;;;;;;;;;;;;;;;5156201;27;28455;-82
2022/04/25 03:07:05;;;;;;;;;;;;;;;;;;5157086;27;28396;-83
2022/04/25 03:09:30;;;;;;;;;;;;;;;;;;5157772;27;28473;-83
2022/04/25 03:11:57;;;;;;;;;;;;;;;;;;5157739;27;29182;-82
2022/04/25 03:14:23;;;;;;;;;;;;;;;;;;5157840;27;28469;-83
2022/04/25 03:16:49;;;;;;;;;;;;;;;;;;5138593;27;28395;-83
2022/04/25 03:19:14;;;;;;;;;;;;;;;;;;5157741;27;28445;-82
2022/04/25 03:21:39;;;;;;;;;;;;;;;;;;5157720;27;28632;-82
2022/04/25 03:24:04;;;;;;;;;;;;;;;;;;5157169;27;28536;-83
2022/04/25 03:26:30;;;;;;;;;;;;;;;;;;5157652;27;28355;-83
2022/04/25 03:28:55;;;;;;;;;;;;;;;;;;5157626;27;28423;-83
2022/04/25 03:31:20;;;;;;;;;;;;;;;;;;5157327;27;28546;-83
2022/04/25 03:33:45;;;;;;;;;;;;;;;;;;5157072;27;28275;-83
2022/04/25 03:36:10;;;;;;;;;;;;;;;;;;5157216;27;28420;-83
2022/04/25 03:38:35;;;;;;;;;;;;;;;;;;5157716;27;28503;-83
2022/04/25 03:41:01;;;;;;;;;;;;;;;;;;5157167;27;28420;-83
2022/04/25 03:43:26;;;;;;;;;;;;;;;;;;5156993;27;28327;-82
2022/04/25 03:45:51;;;;;;;;;;;;;;;;;;5157504;27;28456;-82
2022/04/25 03:48:17;;;;;;;;;;;;;;;;;;5157495;27;28369;-82
2022/04/25 03:50:42;;;;;;;;;;;;;;;;;;5157095;27;28539;-82
2022/04/25 03:53:07;;;;;;;;;;;;;;;;;;5157337;27;28471;-82
2022/04/25 03:58:16;;;;;;;;;;;;;;;;;;5156743;27;28448;-83
2022/04/25 04:00:41;;;;;;;;;;;;;;;;;;5137917;27;28684;-83
2022/04/25 04:03:06;;;;;;;;;;;;;;;;;;5156654;27;28407;-83
2022/04/25 04:05:32;;;;;;;;;;;;;;;;;;5138382;27;28429;-83
2022/04/25 04:07:57;;;;;;;;;;;;;;;;;;5159876;27;28477;-83
2022/04/25 04:10:22;;;;;;;;;;;;;;;;;;5160760;27;28396;-83
2022/04/25 04:12:47;;;;;;;;;;;;;;;;;;5160308;27;28399;-82
2022/04/25 04:15:13;;;;;;;;;;;;;;;;;;5160593;27;28293;-83
2022/04/25 04:17:38;;;;;;;;;;;;;;;;;;5160706;27;28263;-83
2022/04/25 04:20:03;;;;;;;;;;;;;;;;;;5160575;27;28412;-83
2022/04/25 04:22:29;;;;;;;;;;;;;;;;;;5160578;27;28232;-83
2022/04/25 04:24:54;;;;;;;;;;;;;;;;;;5160554;27;28392;-83
2022/04/25 04:27:19;;;;;;;;;;;;;;;;;;5160364;27;28472;-83
2022/04/25 04:29:44;;;;;;;;;;;;;;;;;;5160450;27;29093;-82
2022/04/25 04:32:10;;;;;;;;;;;;;;;;;;5160170;27;28332;-83
2022/04/25 04:34:35;;;;;;;;;;;;;;;;;;5159892;27;27696;-83
2022/04/25 04:37:00;;;;;;;;;;;;;;;;;;5160547;27;35176;-83
2022/04/25 04:39:25;;;;;;;;;;;;;;;;;;5160107;27;28227;-82
2022/04/25 04:41:50;;;;;;;;;;;;;;;;;;5160193;27;28330;-83
2022/04/25 04:44:15;;;;;;;;;;;;;;;;;;5160212;27;28291;-83
2022/04/25 04:46:41;;;;;;;;;;;;;;;;;;5160450;27;28518;-82
2022/04/25 04:49:06;;;;;;;;;;;;;;;;;;5159544;27;29497;-83
2022/04/25 04:51:31;;;;;;;;;;;;;;;;;;5160013;27;28248;-83
2022/04/25 04:53:59;;;;;;;;;;;;;;;;;;5160318;27;28473;-83
2022/04/25 04:56:24;;;;;;;;;;;;;;;;;;5159913;27;28329;-83
2022/04/25 04:58:50;;;;;;;;;;;;;;;;;;5159416;27;28330;-83
2022/04/25 05:01:15;;;;;;;;;;;;;;;;;;5159851;27;28444;-83
2022/04/25 05:03:41;;;;;;;;;;;;;;;;;;5159375;27;28366;-84
2022/04/25 05:06:06;;;;;;;;;;;;;;;;;;5160214;27;28426;-85
2022/04/25 05:08:31;;;;;;;;;;;;;;;;;;5159890;27;29165;-82
2022/04/25 05:10:56;;;;;;;;;;;;;;;;;;5159777;27;28417;-85
2022/04/25 05:13:22;;;;;;;;;;;;;;;;;;5159736;27;28483;-82
2022/04/25 05:15:47;;;;;;;;;;;;;;;;;;5159761;27;28435;-84
2022/04/25 05:18:12;;;;;;;;;;;;;;;;;;5158123;27;28561;-86
2022/04/25 05:20:37;;;;;;;;;;;;;;;;;;5159411;27;28534;-86
2022/04/25 05:23:02;;;;;;;;;;;;;;;;;;5159198;27;28363;-86
2022/04/25 05:25:27;;;;;;;;;;;;;;;;;;5156859;27;28448;-87
2022/04/25 05:27:52;;;;;;;;;;;;;;;;;;5144507;27;29383;-87
2022/04/25 05:30:18;;;;;;;;;;;;;;;;;;5146280;27;28308;-87
2022/04/25 05:32:43;;;;;;;;;;;;;;;;;;5159483;27;28349;-86
2022/04/25 05:35:08;;;;;;;;;;;;;;;;;;5159661;27;28298;-86
2022/04/25 05:37:33;;;;;;;;;;;;;;;;;;5159337;27;28277;-87
2022/04/25 05:39:58;;;;;;;;;;;;;;;;;;5140703;27;28271;-86
2022/04/25 05:42:23;;;;;;;;;;;;;;;;;;5159012;27;28309;-86
2022/04/25 05:44:48;;;;;;;;;;;;;;;;;;5139701;27;28545;-86
2022/04/25 05:47:13;;;;;;;;;;;;;;;;;;5159134;27;28228;-86
2022/04/25 05:52:22;;;;;;;;;;;;;;;;;;5139075;27;28258;-84
2022/04/25 05:54:47;;;;;;;;;;;;;;;;;;5138482;27;28686;-83
2022/04/25 05:57:12;;;;;;;;;;;;;;;;;;5137930;27;28472;-83
2022/04/25 05:59:38;;;;;;;;;;;;;;;;;;5138233;27;28746;-84
2022/04/25 06:02:03;;;;;;;;;;;;;;;;;;5138108;27;28464;-86
2022/04/25 06:04:28;;;;;;;;;;;;;;;;;;5138474;27;27788;-86
2022/04/25 06:06:53;;;;;;;;;;;;;;;;;;5157058;27;28327;-87
2022/04/25 06:09:19;;;;;;;;;;;;;;;;;;5139571;27;28331;-84
2022/04/25 06:11:44;;;;;;;;;;;;;;;;;;5140093;27;28352;-85
2022/04/25 06:14:09;;;;;;;;;;;;;;;;;;5158803;27;28460;-84
2022/04/25 06:16:34;;;;;;;;;;;;;;;;;;5157503;27;29324;-84
2022/04/25 06:19:01;;;;;;;;;;;;;;;;;;5158367;27;28291;-84
2022/04/25 06:21:26;;;;;;;;;;;;;;;;;;5139727;27;28389;-85
2022/04/25 06:23:51;;;;;;;;;;;;;;;;;;5158400;27;28339;-86
2022/04/25 06:26:16;;;;;;;;;;;;;;;;;;5157020;27;28232;-85
2022/04/25 06:28:41;;;;;;;;;;;;;;;;;;5158095;27;28395;-84
2022/04/25 06:31:06;;;;;;;;;;;;;;;;;;5158399;27;28276;-84
2022/04/25 06:33:32;;;;;;;;;;;;;;;;;;5139690;27;28317;-90
2022/04/25 06:35:57;;;;;;;;;;;;;;;;;;5139035;27;28601;-85
2022/04/25 06:38:22;;;;;;;;;;;;;;;;;;5158374;27;28670;-85
2022/04/25 06:40:47;;;;;;;;;;;;;;;;;;5139156;27;28562;-85
2022/04/25 06:43:14;;;;;;;;;;;;;;;;;;5156137;27;28455;-83
2022/04/25 06:45:39;;;;;;;;;;;;;;;;;;5156654;27;28544;-85
2022/04/25 06:48:04;;;;;;;;;;;;;;;;;;5156475;27;28485;-84
2022/04/25 06:50:29;;;;;;;;;;;;;;;;;;5157822;27;28422;-81
2022/04/25 06:52:54;;;;;;;;;;;;;;;;;;5157681;27;28316;-80
2022/04/25 06:55:20;;;;;;;;;;;;;;;;;;5158016;27;28365;-80
2022/04/25 06:57:45;;;;;;;;;;;;;;;;;;5156571;27;28391;-80
2022/04/25 07:00:11;;;;;;;;;;;;;;;;;;5157542;27;28380;-80
2022/04/25 07:02:36;;;;;;;;;;;;;;;;;;5157583;27;28589;-81
2022/04/25 07:05:01;;;;;;;;;;;;;;;;;;5156277;27;29058;-80
2022/04/25 07:07:26;;;;;;;;;;;;;;;;;;5156774;27;28460;-80
2022/04/25 07:09:51;;;;;;;;;;;;;;;;;;5157131;27;28367;-79
2022/04/25 07:12:16;;;;;;;;;;;;;;;;;;5157619;27;28524;-80
2022/04/25 07:14:41;;;;;;;;;;;;;;;;;;5156909;27;29135;-83
2022/04/25 07:17:06;;;;;;;;;;;;;;;;;;5157310;27;28477;-82
2022/04/25 07:19:32;;;;;;;;;;;;;;;;;;5157085;27;28390;-82
2022/04/25 07:30:09;;;;;;;;;;;;;;;;;;5156614;27;28585;-83
2022/04/25 07:32:37;;;;;;;;;;;;;;;;;;5156418;27;28280;-84
2022/04/25 07:35:04;;;;;;;;;;;;;;;;;;5156806;27;28584;-86
2022/04/25 07:37:33;;;;;;;;;;;;;;;;;;5157586;27;28423;-84
2022/04/25 07:39:58;;;;;;;;;;;;;;;;;;5157039;27;28338;-82
2022/04/25 07:42:23;;;;;;;;;;;;;;;;;;5159431;27;27770;-83
2022/04/25 07:44:48;;;;;;;;;;;;;;;;;;5160977;27;28924;-82
2022/04/25 07:47:13;;;;;;;;;;;;;;;;;;5160106;27;28384;-82
2022/04/25 07:49:38;;;;;;;;;;;;;;;;;;5160808;27;28337;-82
2022/04/25 07:52:03;;;;;;;;;;;;;;;;;;5160760;27;28343;-83
2022/04/25 07:54:29;;;;;;;;;;;;;;;;;;5160834;27;28414;-83
2022/04/25 07:56:55;;;;;;;;;;;;;;;;;;5160368;27;28411;-84
2022/04/25 07:59:20;;;;;;;;;;;;;;;;;;5159690;27;28483;-84
2022/04/25 08:01:46;;;;;;;;;;;;;;;;;;5160355;27;28535;-83
2022/04/25 08:04:11;;;;;;;;;;;;;;;;;;5160221;27;29203;-82
2022/04/25 08:06:37;;;;;;;;;;;;;;;;;;5160411;27;28568;-83
2022/04/25 08:09:03;;;;;;;;;;;;;;;;;;5160560;27;28328;-83
2022/04/25 08:11:28;;;;;;;;;;;;;;;;;;5160502;27;28339;-82
2022/04/25 08:19:21;;;;;;;;;;;;;;;;;;5159011;27;28486;-83
2022/04/25 08:21:46;;;;;;;;;;;;;;;;;;5158661;27;28380;-85
2022/04/25 08:24:11;;;;;;;;;;;;;;;;;;5158730;27;28579;-83
2022/04/25 08:26:36;;;;;;;;;;;;;;;;;;5158607;27;28494;-83
2022/04/25 08:29:02;;;;;;;;;;;;;;;;;;5158759;27;28491;-83
2022/04/25 08:31:27;;;;;;;;;;;;;;;;;;5158237;27;28453;-83
2022/04/25 08:33:52;;;;;;;;;;;;;;;;;;5159490;27;28363;-83
2022/04/25 08:36:18;;;;;;;;;;;;;;;;;;5158843;27;28297;-84
2022/04/25 08:38:43;;;;;;;;;;;;;;;;;;5159546;27;28416;-85
2022/04/25 08:41:08;;;;;;;;;;;;;;;;;;5160004;27;28421;-83
2022/04/25 08:43:33;;;;;;;;;;;;;;;;;;5159531;27;29403;-84
2022/04/25 08:45:59;;;;;;;;;;;;;;;;;;5159360;27;28432;-84
2022/04/25 08:48:25;;;;;;;;;;;;;;;;;;5154293;27;28537;-87
2022/04/25 08:50:51;;;;;;;;;;;;;;;;;;5138875;27;28326;-85
2022/04/25 08:53:16;;;;;;;;;;;;;;;;;;5150475;27;28742;-84
2022/04/25 08:55:41;;;;;;;;;;;;;;;;;;5159200;27;28478;-84
2022/04/25 08:58:06;;;;;;;;;;;;;;;;;;5158515;27;28639;-85
2022/04/25 09:00:31;;;;;;;;;;;;;;;;;;5158921;27;28519;-84
2022/04/25 09:02:57;;;;;;;;;;;;;;;;;;5158960;27;29653;-84
2022/04/25 09:05:22;;;;;;;;;;;;;;;;;;5158573;27;28461;-85
2022/04/25 09:07:47;;;;;;;;;;;;;;;;;;5158531;27;28505;-85
2022/04/25 09:10:12;;;;;;;;;;;;;;;;;;5154362;27;35910;-84
2022/04/25 09:12:38;;;;;;;;;;;;;;;;;;5138170;27;28603;-85
2022/04/25 09:15:03;;;;;;;;;;;;;;;;;;5143903;27;28820;-83
2022/04/25 09:17:28;;;;;;;;;;;;;;;;;;5159145;27;28308;-83
2022/04/25 09:19:53;;;;;;;;;;;;;;;;;;5159086;27;28315;-87
2022/04/25 09:22:18;;;;;;;;;;;;;;;;;;5158791;27;29264;-89
2022/04/25 09:24:46;;;;;;;;;;;;;;;;;;5159287;27;27996;-89
2022/04/25 09:27:12;;;;;;;;;;;;;;;;;;5159952;27;28463;-89
2022/04/25 09:29:37;;;;;;;;;;;;;;;;;;5145605;27;28482;-94
2022/04/25 09:32:02;;;;;;;;;;;;;;;;;;5170775;27;28659;-93
2022/04/25 09:37:11;;;;;;;;;;;;;;;;;;5164655;27;27760;-93
2022/04/25 09:39:36;;;;;;;;;;;;;;;;;;5165534;27;28498;-94
2022/04/25 09:42:01;;;;;;;;;;;;;;;;;;5145351;27;28603;-93
2022/04/25 09:44:27;;;;;;;;;;;;;;;;;;5163911;27;27875;-93
2022/04/25 09:46:52;;;;;;;;;;;;;;;;;;5163821;27;28566;-92
2022/04/25 09:49:17;;;;;;;;;;;;;;;;;;5163431;27;28523;-87
2022/04/25 09:51:42;;;;;;;;;;;;;;;;;;5160997;27;29231;-93
2022/04/25 09:54:07;;;;;;;;;;;;;;;;;;5162215;27;28147;-94
2022/04/25 09:56:34;;;;;;;;;;;;;;;;;;5164584;27;28473;-95
2022/04/25 09:59:00;;;;;;;;;;;;;;;;;;5165460;27;28259;-95
2022/04/25 10:01:26;;;;;;;;;;;;;;;;;;5151624;27;28443;-90
2022/04/25 10:03:51;;;;;;;;;;;;;;;;;;5159984;27;28264;-92
2022/04/25 10:06:16;;;;;;;;;;;;;;;;;;5164808;27;28394;-92
2022/04/25 10:08:41;;;;;;;;;;;;;;;;;;5170383;27;28311;-92
2022/04/25 10:11:07;;;;;;;;;;;;;;;;;;5162105;27;28263;-92
2022/04/25 10:13:32;;;;;;;;;;;;;;;;;;5162279;27;28365;-91
2022/04/25 10:15:57;;;;;;;;;;;;;;;;;;5161435;27;28566;-90
2022/04/25 10:18:22;;;;;;;;;;;;;;;;;;5149942;27;27895;-90
2022/04/25 10:20:47;;;;;;;;;;;;;;;;;;5139416;27;28433;-91
2022/04/25 10:23:12;;;;;;;;;;;;;;;;;;5140385;27;28359;-91
2022/04/25 10:25:37;;;;;;;;;;;;;;;;;;5141875;27;28540;-93
2022/04/25 10:28:03;;;;;;;;;;;;;;;;;;5143129;27;28496;-93
2022/04/25 10:30:28;;;;;;;;;;;;;;;;;;5149188;27;28397;-94
2022/04/25 10:32:53;;;;;;;;;;;;;;;;;;5167058;27;27766;-95
2022/04/25 10:35:19;;;;;;;;;;;;;;;;;;5169446;27;28220;-94
2022/04/25 10:37:44;;;;;;;;;;;;;;;;;;5167413;27;28441;-92
2022/04/25 10:40:09;;;;;;;;;;;;;;;;;;5163176;27;28306;-94
2022/04/25 10:45:18;;;;;;;;;;;;;;;;;;5159759;27;28373;-92
2022/04/25 10:47:43;;;;;;;;;;;;;;;;;;5158682;27;28428;-91
2022/04/25 10:50:09;;;;;;;;;;;;;;;;;;5157992;27;29284;-90
2022/04/25 10:52:34;;;;;;;;;;;;;;;;;;5159014;27;28452;-90
2022/04/25 10:55:04;;;;;;;;;;;;;;;;;;5158139;27;28507;-89
2022/04/25 10:57:29;;;;;;;;;;;;;;;;;;5137135;27;28544;-90
2022/04/25 10:59:54;;;;;;;;;;;;;;;;;;5136698;27;28519;-90
2022/04/25 11:02:19;;;;;;;;;;;;;;;;;;5148952;27;28465;-92
2022/04/25 11:04:44;;;;;;;;;;;;;;;;;;5157498;27;28463;-90
2022/04/25 11:07:09;;;;;;;;;;;;;;;;;;5157654;27;28471;-90
2022/04/25 11:09:35;;;;;;;;;;;;;;;;;;5157822;27;29120;-91
2022/04/25 11:12:00;;;;;;;;;;;;;;;;;;5158039;27;28364;-90
2022/04/25 11:14:25;;;;;;;;;;;;;;;;;;5157962;27;28334;-91
2022/04/25 11:16:50;;;;;;;;;;;;;;;;;;5157308;27;28452;-89
2022/04/25 11:19:17;;;;;;;;;;;;;;;;;;5158594;27;28606;-92
2022/04/25 11:21:45;;;;;;;;;;;;;;;;;;5141410;27;28739;-91
2022/04/25 11:24:11;;;;;;;;;;;;;;;;;;5154425;27;28499;-88
2022/04/25 11:26:36;;;;;;;;;;;;;;;;;;5157700;27;28330;-88
2022/04/25 11:29:01;;;;;;;;;;;;;;;;;;5149126;27;28429;-94
2022/04/25 11:31:27;;;;;;;;;;;;;;;;;;5159995;27;28395;-92
2022/04/25 11:33:52;;;;;;;;;;;;;;;;;;5158049;27;28500;-89
2022/04/25 11:36:17;;;;;;;;;;;;;;;;;;5157215;27;28250;-88
2022/04/25 11:41:26;;;;;;;;;;;;;;;;;;5157065;27;28479;-88
2022/04/25 11:43:51;;;;;;;;;;;;;;;;;;5156981;27;28472;-88
2022/04/25 11:46:16;;;;;;;;;;;;;;;;;;5157063;27;28614;-88
2022/04/25 11:48:42;;;;;;;;;;;;;;;;;;5157262;27;28579;-88
2022/04/25 11:51:07;;;;;;;;;;;;;;;;;;5157159;27;28422;-88
2022/04/25 11:53:32;;;;;;;;;;;;;;;;;;5157180;27;28454;-92
2022/04/25 11:55:57;;;;;;;;;;;;;;;;;;5157478;27;28658;-88
2022/04/25 11:58:22;;;;;;;;;;;;;;;;;;5157310;27;29570;-90
2022/04/25 12:00:48;;;;;;;;;;;;;;;;;;5157587;27;28445;-90
2022/04/25 12:03:13;;;;;;;;;;;;;;;;;;5158225;27;28254;-93
2022/04/25 12:05:40;;;;;;;;;;;;;;;;;;5157114;27;28841;-89
2022/04/25 12:16:18;;;;;;;;;;;;;;;;;;5155987;27;28453;-88
2022/04/25 12:18:43;;;;;;;;;;;;;;;;;;5156566;27;28506;-88
2022/04/25 12:21:08;;;;;;;;;;;;;;;;;;5154156;27;29087;-88
2022/04/25 12:23:33;;;;;;;;;;;;;;;;;;5156303;27;28481;-88
2022/04/25 12:25:58;;;;;;;;;;;;;;;;;;5156476;27;28285;-89
2022/04/25 12:28:24;;;;;;;;;;;;;;;;;;5158094;27;28446;-88
2022/04/25 12:30:49;;;;;;;;;;;;;;;;;;5159931;27;28394;-87
2022/04/25 12:33:14;;;;;;;;;;;;;;;;;;5159903;27;28397;-87
2022/04/25 12:35:39;;;;;;;;;;;;;;;;;;5159980;27;27865;-88
2022/04/25 12:38:04;;;;;;;;;;;;;;;;;;5160106;27;28619;-92
2022/04/25 12:40:29;;;;;;;;;;;;;;;;;;5168772;27;28726;-95
2022/04/25 12:42:55;;;;;;;;;;;;;;;;;;5163848;27;28261;-92
2022/04/25 12:45:20;;;;;;;;;;;;;;;;;;5160454;27;28440;-91
2022/04/25 12:47:45;;;;;;;;;;;;;;;;;;5159967;27;28606;-92
2022/04/25 12:50:10;;;;;;;;;;;;;;;;;;5160922;27;28415;-93
2022/04/25 12:52:36;;;;;;;;;;;;;;;;;;5160715;27;28410;-92
2022/04/25 12:55:01;;;;;;;;;;;;;;;;;;5160525;27;28484;-90
2022/04/25 12:57:28;;;;;;;;;;;;;;;;;;5159373;27;29127;-88
2022/04/25 12:59:53;;;;;;;;;;;;;;;;;;5159314;27;28485;-88
2022/04/25 13:02:18;;;;;;;;;;;;;;;;;;5159301;27;27857;-88
2022/04/25 13:04:43;;;;;;;;;;;;;;;;;;5158992;27;28635;-87
2022/04/25 13:07:09;;;;;;;;;;;;;;;;;;5159313;27;28506;-86
2022/04/25 13:09:34;;;;;;;;;;;;;;;;;;5159235;27;28499;-88
2022/04/25 13:11:59;;;;;;;;;;;;;;;;;;5159389;27;28444;-89
2022/04/25 13:14:24;;;;;;;;;;;;;;;;;;5159443;27;28547;-90
2022/04/25 13:16:49;;;;;;;;;;;;;;;;;;5159113;27;29404;-91
2022/04/25 13:19:14;;;;;;;;;;;;;;;;;;5158694;27;28334;-91
2022/04/25 13:21:42;;;;;;;;;;;;;;;;;;5161848;27;28323;-91
2022/04/25 13:24:07;;;;;;;;;;;;;;;;;;5167987;27;27943;-89
2022/04/25 13:26:32;;;;;;;;;;;;;;;;;;5162663;27;28463;-94
2022/04/25 13:28:57;;;;;;;;;;;;;;;;;;5169730;27;27774;-94
2022/04/25 13:31:22;;;;;;;;;;;;;;;;;;5167224;27;27911;-96
2022/04/25 13:33:47;;;;;;;;;;;;;;;;;;5163055;27;27792;-93
2022/04/25 13:36:13;;;;;;;;;;;;;;;;;;5141374;27;30027;-93
2022/04/25 13:38:38;;;;;;;;;;;;;;;;;;5139887;27;28410;-91
2022/04/25 13:41:03;;;;;;;;;;;;;;;;;;5159200;27;28344;-91
2022/04/25 13:43:28;;;;;;;;;;;;;;;;;;5159461;27;28217;-92
2022/04/25 13:45:54;;;;;;;;;;;;;;;;;;5158416;27;28226;-91
2022/04/25 13:48:19;;;;;;;;;;;;;;;;;;5145721;27;28405;-90
2022/04/25 13:50:44;;;;;;;;;;;;;;;;;;5148084;27;28227;-90
2022/04/25 13:53:10;;;;;;;;;;;;;;;;;;5158706;27;28302;-90
2022/04/25 13:55:35;;;;;;;;;;;;;;;;;;5158194;27;28309;-89
2022/04/25 13:58:03;;;;;;;;;;;;;;;;;;5157176;27;28917;-89
2022/04/25 14:00:28;;;;;;;;;;;;;;;;;;5158170;27;28371;-88
2022/04/25 14:03:05;;;;;;;;;;;;;;;;;;5158405;27;28541;-89
2022/04/25 14:05:31;;;;;;;;;;;;;;;;;;5158141;27;28457;-89
2022/04/25 14:07:56;;;;;;;;;;;;;;;;;;5158153;27;28342;-89
2022/04/25 14:10:22;;;;;;;;;;;;;;;;;;5158122;27;28479;-88
2022/04/25 14:12:47;;;;;;;;;;;;;;;;;;5158282;27;28547;-89
2022/04/25 14:15:12;;;;;;;;;;;;;;;;;;5157919;27;29493;-90
2022/04/25 14:17:37;;;;;;;;;;;;;;;;;;5158102;27;28453;-88
2022/04/25 14:20:02;;;;;;;;;;;;;;;;;;5158114;27;28456;-88
2022/04/25 14:22:28;;;;;;;;;;;;;;;;;;5157518;27;28672;-88
2022/04/25 14:24:53;;;;;;;;;;;;;;;;;;5157102;27;28293;-88
2022/04/25 14:27:18;;;;;;;;;;;;;;;;;;5139334;27;28577;-89
2022/04/25 14:29:43;;;;;;;;;;;;;;;;;;5157859;27;28587;-90
2022/04/25 14:32:08;;;;;;;;;;;;;;;;;;5158397;27;28350;-90
2022/04/25 14:34:33;;;;;;;;;;;;;;;;;;5157288;27;28461;-90
2022/04/25 14:36:58;;;;;;;;;;;;;;;;;;5157996;27;28539;-90
2022/04/25 14:39:23;;;;;;;;;;;;;;;;;;5157595;27;28390;-89
2022/04/25 14:41:49;;;;;;;;;;;;;;;;;;5157327;27;28603;-89
2022/04/25 14:44:14;;;;;;;;;;;;;;;;;;5138788;27;29265;-88
2022/04/25 14:46:39;;;;;;;;;;;;;;;;;;5156966;27;28554;-88
2022/04/25 14:49:04;;;;;;;;;;;;;;;;;;5156868;27;28519;-88
2022/04/25 14:54:22;;;;;;;;;;;;;;;;;;5155270;27;27936;-94
2022/04/25 14:56:47;;;;;;;;;;;;;;;;;;5144644;27;29344;-94
2022/04/25 14:59:14;;;;;;;;;;;;;;;;;;5162079;27;28271;-93
2022/04/25 15:01:40;;;;;;;;;;;;;;;;;;5143517;27;28256;-96
2022/04/25 15:04:05;;;;;;;;;;;;;;;;;;5161837;27;28234;-94
2022/04/25 15:06:30;;;;;;;;;;;;;;;;;;5167582;27;27716;-95
2022/04/25 15:08:55;;;;;;;;;;;;;;;;;;5167342;27;28445;-93
2022/04/25 15:11:20;;;;;;;;;;;;;;;;;;5164178;27;28375;-96
2022/04/25 15:13:45;;;;;;;;;;;;;;;;;;5163047;27;28238;-94
2022/04/25 15:16:10;;;;;;;;;;;;;;;;;;5159978;27;28534;-94
2022/04/25 15:18:35;;;;;;;;;;;;;;;;;;5160901;27;28440;-93
2022/04/25 15:21:00;;;;;;;;;;;;;;;;;;5161614;27;28408;-93
2022/04/25 15:23:25;;;;;;;;;;;;;;;;;;5162270;27;28266;-92
2022/04/25 15:25:51;;;;;;;;;;;;;;;;;;5162538;27;28428;-95
2022/04/25 15:28:16;;;;;;;;;;;;;;;;;;5162182;27;28500;-93
2022/04/25 15:30:41;;;;;;;;;;;;;;;;;;5161890;27;27750;-94
2022/04/25 15:33:06;;;;;;;;;;;;;;;;;;5161443;27;28460;-94
2022/04/25 15:35:31;;;;;;;;;;;;;;;;;;5160677;27;28224;-94
2022/04/25 15:37:56;;;;;;;;;;;;;;;;;;5158479;27;28248;-93
2022/04/25 15:40:21;;;;;;;;;;;;;;;;;;5159446;27;28333;-94
2022/04/25 15:42:47;;;;;;;;;;;;;;;;;;5161610;27;29109;-95
2022/04/25 15:45:13;;;;;;;;;;;;;;;;;;5142438;27;28060;-94
2022/04/25 15:47:38;;;;;;;;;;;;;;;;;;5161413;27;28236;-94
2022/04/25 15:50:03;;;;;;;;;;;;;;;;;;5164259;27;28335;-94
2022/04/25 15:52:29;;;;;;;;;;;;;;;;;;5162506;27;29297;-94
2022/04/25 15:57:43;;;;;;;;;;;;;;;;;;5161404;27;28541;-94
2022/04/25 16:00:08;;;;;;;;;;;;;;;;;;5160248;27;28256;-94
2022/04/25 16:02:34;;;;;;;;;;;;;;;;;;5160193;27;28247;-92
2022/04/25 16:04:59;;;;;;;;;;;;;;;;;;5163749;27;27908;-94
2022/04/25 16:07:24;;;;;;;;;;;;;;;;;;5163503;27;28267;-93
2022/04/25 16:09:49;;;;;;;;;;;;;;;;;;5162635;27;27828;-93
2022/04/25 16:12:15;;;;;;;;;;;;;;;;;;5162445;27;28500;-93
2022/04/25 16:14:41;;;;;;;;;;;;;;;;;;5161419;27;28380;-89
2022/04/25 16:17:07;;;;;;;;;;;;;;;;;;5160147;27;28442;-89
2022/04/25 16:19:32;;;;;;;;;;;;;;;;;;5148597;27;28449;-89
2022/04/25 16:21:57;;;;;;;;;;;;;;;;;;5145512;27;29163;-90
2022/04/25 16:24:22;;;;;;;;;;;;;;;;;;5159968;27;28657;-91
2022/04/25 16:26:47;;;;;;;;;;;;;;;;;;5160142;27;28503;-90
2022/04/25 16:29:12;;;;;;;;;;;;;;;;;;5159262;27;28467;-89
2022/04/25 16:31:37;;;;;;;;;;;;;;;;;;5161072;27;28387;-90
2022/04/25 16:34:03;;;;;;;;;;;;;;;;;;5161305;27;28542;-94
2022/04/25 16:36:28;;;;;;;;;;;;;;;;;;5162125;27;28804;-94
2022/04/25 16:38:53;;;;;;;;;;;;;;;;;;5160101;27;28698;-91
2022/04/25 16:41:18;;;;;;;;;;;;;;;;;;5160121;27;28457;-91
2022/04/25 16:43:44;;;;;;;;;;;;;;;;;;5160510;27;27786;-89
2022/04/25 16:46:09;;;;;;;;;;;;;;;;;;5157188;27;28538;-91
2022/04/25 16:48:34;;;;;;;;;;;;;;;;;;5159997;27;28462;-91
2022/04/25 16:51:00;;;;;;;;;;;;;;;;;;5160125;27;28428;-92
2022/04/25 16:53:25;;;;;;;;;;;;;;;;;;5140949;27;29151;-88
2022/04/25 16:55:50;;;;;;;;;;;;;;;;;;5141111;27;27785;-86
2022/04/25 16:58:15;;;;;;;;;;;;;;;;;;5159333;27;28429;-85
2022/04/25 17:00:40;;;;;;;;;;;;;;;;;;5140257;27;31110;-86
2022/04/25 17:03:06;;;;;;;;;;;;;;;;;;5159183;27;28461;-88
2022/04/25 17:05:31;;;;;;;;;;;;;;;;;;5159412;27;28491;-88
2022/04/25 17:07:56;;;;;;;;;;;;;;;;;;5140769;27;28431;-84
2022/04/25 17:10:21;;;;;;;;;;;;;;;;;;5158825;27;29275;-83
2022/04/25 17:12:46;;;;;;;;;;;;;;;;;;5158775;27;28394;-83
2022/04/25 17:15:11;;;;;;;;;;;;;;;;;;5157186;27;28329;-84